MAPA DE AEROPUERTO

INFORMACIÓN METAR y TAF


Deprecated: The each() function is deprecated. This message will be suppressed on further calls in /home/customer/www/clickair-va.com/public_html/VAM/vam/helpers/get_metar.php on line 20
METAR FOR LEAM
ADDS - METARS form results

(2019 UTC 18 August 2022)
Data provider http://aviationweather.gov/metar/data/
 
METAR text: LEAM 182000Z 00000KT CAVOK 25/21 Q1015
Conditions at: LEAM (ALMERIA AIRPORT , ES) observed 2000 UTC 18 August 2022
Temperature: 25.0°C (77°F)
Dewpoint: 21.0°C (70°F) [RH = 79%]
Pressure (altimeter): 29.97 inches Hg (1015.0 mb)
Winds: calm
Visibility: 6 or more miles (10+ km)
Ceiling: ceiling and visibility are OK
Clouds: unknown
Weather: no significant weather observed at this time

METAR text: LEAM 181930Z 00000KT CAVOK 26/20 Q1014
Conditions at: LEAM (ALMERIA AIRPORT , ES) observed 1930 UTC 18 August 2022
Temperature: 26.0°C (79°F)
Dewpoint: 20.0°C (68°F) [RH = 70%]
Pressure (altimeter): 29.94 inches Hg (1014.0 mb)
Winds: calm
Visibility: 6 or more miles (10+ km)
Ceiling: ceiling and visibility are OK
Clouds: unknown
Weather: no significant weather observed at this time

Forecast for: LEAM (ALMERIA AIRPORT , ES)
Text: TAF LEAM 181700Z 1818/1918 22010KT 9999 FEW035 TX32/1912Z TN21/1905Z
Forecast period: 1800 UTC 18 August 2022 to 1800 UTC 19 August 2022
Forecast type: FROM: standard forecast or significant change
Winds: from the SW (220 degrees) at 12 MPH (10 knots; 5.1 m/s)
Visibility: 6 or more miles (10+ km)
Ceiling: at least 12,000 feet AGL
Clouds: few clouds at 3500 feet AGL
Weather: no significant weather forecast for this period
Text: BECMG 1818/1821 35006KT
Forecast period: 1800 UTC 18 August 2022 to 0700 UTC 19 August 2022
Forecast type: BECOMING: Conditions expected to become as follows by 2100 UTC 18 August 2022
Winds: from the N (350 degrees) at 7 MPH (6 knots; 3.1 m/s)
Visibility: 6 or more miles (10+ km)
Ceiling: at least 12,000 feet AGL
Clouds: few clouds at 3500 feet AGL
Weather: no significant weather forecast for this period
Text: BECMG 1907/1909 10012KT
Forecast period: 0700 to 1800 UTC 19 August 2022
Forecast type: BECOMING: Conditions expected to become as follows by 0900 UTC 19 August 2022
Winds: from the E (100 degrees) at 14 MPH (12 knots; 6.2 m/s)
Visibility: 6 or more miles (10+ km)
Ceiling: at least 12,000 feet AGL
Clouds: few clouds at 3500 feet AGL
Weather: no significant weather forecast for this period